LFPG

Charles de Gaulle International Airport

Paris, France
METAR LFPG 190900Z 08011KT 050V110 CAVOK 26/10 Q1018 NOSIG
Observed Flight Rules
Jul-19 @ 09:00 UTC (36 minutes ago) Visual Flight Rules
Wind Visibility Clouds
80° at 11 knots 10,000+ meters
  • Clear skies
Temperatures Readings
Current 26°C / 79°F
Dewpoint 10°C / 50°F
Humidity 37%
Altimeter 30.06" Hg
Pressure 1018 hPa
Elevation 109
METAR LFPG 190900Z 08011KT 050V110 CAVOK 26/10 Q1018 NOSIG
Observed Flight Rules
Jul-19 @ 09:00 UTC
(36 minutes ago)
VFR
Wind Visibility
80° at 11 knots 10,000+ meters
Clouds
  • Clear skies
Temperature Dewpoint
26°C / 79°F 10°C / 50°F
Humidity Altimeter Pressure
37% 30.06" Hg 1018 hPa